Time;durP1;ratioP1;P1;durP2;ratioP2;P2;SDS_P1;SDS_P2;PMS_P1;PMS_P2;Temp;Humidity;BMP_temperature;BMP_pressure;BME280_temperature;BME280_humidity;BME280_pressure;Samples;Min_cycle;Max_cycle;Signal;HPM_P1;HPM_P2
2023/12/06 00:00:37;;;;;;;5.10;4.53;;;5.50;99.90;;;;;;5085058;28;20196;-85
2023/12/06 00:03:23;;;;;;;5.55;4.45;;;5.50;99.90;;;;;;5079491;28;20227;-85
2023/12/06 00:06:10;;;;;;;5.97;4.53;;;5.50;99.90;;;;;;5085264;28;20267;-86
2023/12/06 00:08:56;;;;;;;5.63;5.00;;;5.50;99.90;;;;;;5079716;28;20270;-86
2023/12/06 00:11:41;;;;;;;5.20;4.70;;;5.50;99.90;;;;;;5081573;28;20208;-86
2023/12/06 00:14:27;;;;;;;5.47;4.97;;;5.60;99.90;;;;;;5090057;28;20704;-85
2023/12/06 00:17:12;;;;;;;5.25;4.65;;;5.60;99.90;;;;;;5084159;28;20251;-86
2023/12/06 00:19:58;;;;;;;4.35;4.00;;;5.60;99.90;;;;;;5087435;28;20576;-85
2023/12/06 00:22:45;;;;;;;6.15;5.00;;;5.60;99.90;;;;;;5087094;28;20215;-85
2023/12/06 00:25:30;;;;;;;6.15;4.25;;;5.60;99.90;;;;;;5085771;28;20325;-86
2023/12/06 00:28:16;;;;;;;4.68;4.28;;;5.60;99.90;;;;;;5085610;28;20680;-85
2023/12/06 00:31:02;;;;;;;4.68;4.25;;;5.60;99.90;;;;;;5085287;28;20243;-85
2023/12/06 00:33:48;;;;;;;5.50;4.53;;;5.60;99.90;;;;;;5083437;28;20295;-85
2023/12/06 00:36:33;;;;;;;6.47;5.85;;;5.60;99.90;;;;;;5086859;28;20199;-86
2023/12/06 00:39:20;;;;;;;7.68;6.72;;;5.70;99.90;;;;;;5085804;28;20203;-87
2023/12/06 00:42:06;;;;;;;7.00;6.32;;;5.70;99.90;;;;;;5084466;28;20200;-86
2023/12/06 00:44:52;;;;;;;5.97;5.38;;;5.80;99.90;;;;;;5072000;28;20232;-85
2023/12/06 00:47:38;;;;;;;6.53;5.93;;;5.70;99.90;;;;;;5068316;28;20744;-85
2023/12/06 00:50:23;;;;;;;6.72;6.03;;;5.70;99.90;;;;;;5067091;28;20239;-85
2023/12/06 00:53:09;;;;;;;6.60;6.00;;;5.60;99.90;;;;;;5083836;28;20235;-86
2023/12/06 00:55:56;;;;;;;6.90;6.22;;;5.50;99.90;;;;;;5092044;28;20207;-85
2023/12/06 00:58:43;;;;;;;7.85;7.05;;;5.60;99.90;;;;;;5083232;28;20611;-85
2023/12/06 01:01:28;;;;;;;9.52;7.13;;;5.60;99.90;;;;;;5078619;28;20243;-85
2023/12/06 01:04:14;;;;;;;6.20;5.60;;;5.60;99.90;;;;;;5087623;28;20299;-85
2023/12/06 01:07:00;;;;;;;7.88;7.07;;;5.60;99.90;;;;;;5081771;28;20211;-85
2023/12/06 01:09:46;;;;;;;7.57;6.55;;;5.60;99.90;;;;;;5087447;28;20269;-85
2023/12/06 01:12:35;;;;;;;8.03;6.90;;;5.60;99.90;;;;;;5083341;28;20204;-86
2023/12/06 01:15:20;;;;;;;8.20;7.40;;;5.70;99.90;;;;;;5085715;28;21058;-86
2023/12/06 01:18:06;;;;;;;7.07;5.90;;;5.70;99.90;;;;;;5087195;28;20852;-87
2023/12/06 01:20:52;;;;;;;6.90;6.20;;;5.70;99.90;;;;;;5089566;28;20441;-85
2023/12/06 01:23:38;;;;;;;6.85;6.07;;;5.70;99.90;;;;;;5084705;28;20248;-86
2023/12/06 01:26:24;;;;;;;7.10;6.40;;;5.80;99.90;;;;;;5075109;28;20214;-86
2023/12/06 01:29:11;;;;;;;7.15;6.45;;;5.70;99.90;;;;;;5086226;28;20197;-87
2023/12/06 01:31:57;;;;;;;7.88;6.72;;;5.70;99.90;;;;;;5085382;28;20215;-84
2023/12/06 01:34:42;;;;;;;6.68;5.72;;;5.70;99.90;;;;;;5084253;28;20227;-85
2023/12/06 01:37:28;;;;;;;7.73;6.93;;;5.70;99.90;;;;;;5091310;28;20335;-85
2023/12/06 01:40:14;;;;;;;6.03;5.30;;;5.70;99.90;;;;;;5087094;28;20432;-85
2023/12/06 01:42:59;;;;;;;8.27;6.37;;;5.80;99.90;;;;;;5085014;28;20944;-85
2023/12/06 01:45:47;;;;;;;7.85;6.25;;;5.80;99.90;;;;;;5087089;28;20436;-85
2023/12/06 01:48:33;;;;;;;6.95;6.28;;;5.80;99.90;;;;;;5072398;28;20594;-85
2023/12/06 01:51:20;;;;;;;8.30;6.80;;;5.80;99.90;;;;;;5082573;28;20253;-85
2023/12/06 01:54:06;;;;;;;8.32;7.40;;;5.80;99.90;;;;;;5086569;28;20220;-85
2023/12/06 01:56:52;;;;;;;7.63;6.85;;;5.80;99.90;;;;;;5086497;28;20211;-85
2023/12/06 01:59:39;;;;;;;7.20;6.50;;;5.80;99.90;;;;;;5085034;28;20274;-85
2023/12/06 02:02:26;;;;;;;7.93;7.15;;;5.90;99.90;;;;;;5085808;28;20219;-86
2023/12/06 02:05:13;;;;;;;7.72;6.90;;;5.90;99.90;;;;;;5087655;28;20282;-85
2023/12/06 02:07:59;;;;;;;8.25;7.28;;;5.80;99.90;;;;;;5082980;28;20221;-88
2023/12/06 02:10:45;;;;;;;8.10;5.60;;;5.90;99.90;;;;;;5090164;28;20308;-86
2023/12/06 02:13:31;;;;;;;7.05;6.10;;;5.80;99.90;;;;;;5082654;28;20223;-86
2023/12/06 02:16:17;;;;;;;7.03;6.05;;;5.80;99.90;;;;;;5086213;28;20307;-85
2023/12/06 02:19:06;;;;;;;7.82;7.10;;;5.80;99.90;;;;;;5091761;28;20208;-86
2023/12/06 02:21:52;;;;;;;8.10;6.55;;;5.80;99.90;;;;;;5094276;28;20567;-85
2023/12/06 02:24:40;;;;;;;7.20;5.72;;;5.80;99.90;;;;;;5087167;28;20235;-86
2023/12/06 02:27:27;;;;;;;8.63;6.10;;;5.80;99.90;;;;;;5091408;28;20774;-86
2023/12/06 02:30:14;;;;;;;7.20;6.50;;;5.80;99.90;;;;;;5089283;28;20323;-86
2023/12/06 02:32:59;;;;;;;6.28;5.68;;;5.80;99.90;;;;;;5085928;28;20887;-86
2023/12/06 02:35:50;;;;;;;6.68;5.97;;;5.80;99.90;;;;;;5088514;28;20789;-86
2023/12/06 02:38:36;;;;;;;6.82;6.13;;;5.80;99.90;;;;;;5080465;28;20573;-86
2023/12/06 02:41:23;;;;;;;7.85;6.88;;;5.80;99.90;;;;;;5093208;28;20200;-85
2023/12/06 02:44:10;;;;;;;7.65;6.85;;;5.80;99.90;;;;;;5087689;28;20224;-86
2023/12/06 02:46:56;;;;;;;10.93;8.00;;;5.80;99.90;;;;;;5090714;28;20224;-86
2023/12/06 02:49:41;;;;;;;7.20;6.40;;;5.70;99.90;;;;;;5078734;28;20246;-86
2023/12/06 02:52:27;;;;;;;7.40;6.60;;;5.70;99.90;;;;;;5091864;28;20433;-86
2023/12/06 02:55:12;;;;;;;7.90;7.10;;;5.80;99.90;;;;;;5091537;28;20204;-86
2023/12/06 02:57:58;;;;;;;7.45;6.75;;;5.80;99.90;;;;;;5091541;28;20548;-86
2023/12/06 03:00:45;;;;;;;6.90;6.22;;;5.80;99.90;;;;;;5089662;28;20240;-85
2023/12/06 03:03:31;;;;;;;9.30;7.00;;;5.80;99.90;;;;;;5081042;28;20223;-86
2023/12/06 03:06:16;;;;;;;8.27;7.47;;;5.80;99.90;;;;;;5086386;28;20193;-85
2023/12/06 03:09:02;;;;;;;7.38;6.68;;;5.80;99.90;;;;;;5092817;28;20195;-86
2023/12/06 03:11:48;;;;;;;6.97;6.28;;;5.90;99.90;;;;;;5091941;28;20220;-85
2023/12/06 03:14:33;;;;;;;7.38;6.68;;;5.90;99.90;;;;;;5085035;28;20364;-86
2023/12/06 03:17:20;;;;;;;7.97;6.35;;;5.90;99.90;;;;;;5092814;28;20199;-85
2023/12/06 03:20:08;;;;;;;7.20;6.50;;;5.90;99.90;;;;;;5090320;28;20207;-86
2023/12/06 03:22:54;;;;;;;6.10;5.50;;;5.90;99.90;;;;;;5079486;28;20210;-84
2023/12/06 03:25:40;;;;;;;4.95;4.50;;;5.90;99.90;;;;;;5086865;28;20694;-86
2023/12/06 03:28:25;;;;;;;7.70;5.40;;;5.90;99.90;;;;;;5091692;28;20230;-86
2023/12/06 03:31:11;;;;;;;6.05;5.15;;;5.90;99.90;;;;;;5090417;28;20482;-86
2023/12/06 03:33:58;;;;;;;5.20;4.70;;;5.90;99.90;;;;;;5084091;28;20263;-85
2023/12/06 03:36:44;;;;;;;5.30;4.80;;;5.90;99.90;;;;;;5082940;28;20200;-86
2023/12/06 03:39:30;;;;;;;5.18;4.68;;;5.90;99.90;;;;;;5089863;28;20208;-86
2023/12/06 03:42:15;;;;;;;6.25;4.88;;;5.90;99.90;;;;;;5091301;28;20718;-86
2023/12/06 03:45:01;;;;;;;4.70;4.20;;;5.90;99.90;;;;;;5091409;28;20309;-86
2023/12/06 03:47:47;;;;;;;5.68;5.00;;;6.00;99.90;;;;;;5092662;28;20744;-84
2023/12/06 03:50:34;;;;;;;5.70;5.10;;;6.00;99.90;;;;;;5092415;28;20212;-85
2023/12/06 03:53:19;;;;;;;5.95;5.40;;;6.10;99.90;;;;;;5090601;28;20254;-85
2023/12/06 03:56:05;;;;;;;6.72;6.05;;;6.00;99.90;;;;;;5091587;28;20203;-86
2023/12/06 03:58:51;;;;;;;7.07;6.38;;;5.90;99.90;;;;;;5085973;28;20205;-86
2023/12/06 04:01:37;;;;;;;7.43;6.68;;;5.90;99.90;;;;;;5087201;28;20681;-85
2023/12/06 04:04:22;;;;;;;6.82;6.10;;;5.90;99.90;;;;;;5091615;28;20217;-86
2023/12/06 04:07:09;;;;;;;7.82;6.30;;;5.90;99.90;;;;;;5088050;28;20223;-87
2023/12/06 04:09:55;;;;;;;7.70;6.93;;;5.90;99.90;;;;;;5090828;28;20213;-85
2023/12/06 04:12:40;;;;;;;8.15;6.70;;;5.90;99.90;;;;;;5078553;28;20207;-86
2023/12/06 04:15:26;;;;;;;6.97;6.28;;;6.00;99.90;;;;;;5086458;28;20573;-86
2023/12/06 04:18:13;;;;;;;6.45;5.85;;;6.00;99.90;;;;;;5088284;28;20213;-85
2023/12/06 04:20:58;;;;;;;7.78;6.97;;;5.90;99.90;;;;;;5091912;28;20272;-85
2023/12/06 04:23:45;;;;;;;7.72;6.93;;;5.90;99.90;;;;;;5091392;28;20238;-86
2023/12/06 04:26:31;;;;;;;7.82;6.35;;;5.90;99.90;;;;;;5092470;28;20208;-85
2023/12/06 04:29:17;;;;;;;7.00;6.40;;;5.90;99.90;;;;;;5091799;28;20740;-85
2023/12/06 04:32:03;;;;;;;7.55;6.78;;;5.90;99.90;;;;;;5085748;28;20274;-86
2023/12/06 04:34:53;;;;;;;8.73;7.70;;;6.00;99.90;;;;;;5091966;28;20236;-87
2023/12/06 04:37:39;;;;;;;8.55;7.55;;;6.00;99.90;;;;;;5091304;28;20794;-86
2023/12/06 04:40:26;;;;;;;7.95;7.15;;;6.00;99.90;;;;;;5084262;28;20572;-85
2023/12/06 04:43:12;;;;;;;10.87;9.13;;;6.00;99.90;;;;;;5091493;28;20230;-86
2023/12/06 04:45:58;;;;;;;9.68;8.18;;;6.00;99.90;;;;;;5091637;28;20495;-87
2023/12/06 04:48:43;;;;;;;7.35;6.50;;;6.00;99.90;;;;;;5081460;28;20301;-87
2023/12/06 04:51:29;;;;;;;8.13;7.32;;;6.10;99.90;;;;;;5092231;28;20756;-87
2023/12/06 04:54:15;;;;;;;8.20;7.15;;;6.10;99.90;;;;;;5091955;28;20732;-88
2023/12/06 04:57:03;;;;;;;6.90;6.10;;;6.10;99.90;;;;;;5085477;28;20205;-87
2023/12/06 04:59:48;;;;;;;7.65;6.95;;;6.10;99.90;;;;;;5091360;28;20208;-86
2023/12/06 05:02:34;;;;;;;8.05;6.63;;;6.10;99.90;;;;;;5086516;28;20334;-86
2023/12/06 05:05:20;;;;;;;8.23;7.43;;;6.00;99.90;;;;;;5086279;28;20233;-86
2023/12/06 05:08:05;;;;;;;6.93;6.22;;;6.00;99.90;;;;;;5074073;28;20434;-85
2023/12/06 05:10:51;;;;;;;8.23;7.40;;;6.00;99.90;;;;;;5083956;28;20262;-86
2023/12/06 05:13:38;;;;;;;7.10;6.40;;;6.10;99.90;;;;;;5076517;28;20238;-85
2023/12/06 05:16:24;;;;;;;8.77;7.50;;;6.10;99.90;;;;;;5076650;28;20715;-86
2023/12/06 05:19:10;;;;;;;7.80;7.05;;;6.10;99.90;;;;;;5071781;28;20204;-85
2023/12/06 05:21:56;;;;;;;8.88;7.82;;;6.10;99.90;;;;;;5079851;28;20226;-86
2023/12/06 05:24:42;;;;;;;7.63;6.85;;;6.10;99.90;;;;;;5065739;28;20230;-86
2023/12/06 05:27:27;;;;;;;10.00;8.45;;;6.10;99.90;;;;;;5064554;28;20201;-87
2023/12/06 05:30:15;;;;;;;9.30;8.15;;;6.20;99.90;;;;;;5072160;28;20208;-85
2023/12/06 05:33:01;;;;;;;13.60;9.40;;;6.10;99.90;;;;;;5072329;28;20228;-86
2023/12/06 05:35:47;;;;;;;10.43;8.65;;;6.10;99.90;;;;;;5067214;28;20431;-85
2023/12/06 05:38:32;;;;;;;7.85;6.70;;;6.10;99.90;;;;;;5064833;28;20255;-85
2023/12/06 05:41:18;;;;;;;7.43;6.65;;;6.10;99.90;;;;;;5072428;28;20611;-86
2023/12/06 05:44:05;;;;;;;7.65;6.28;;;6.10;99.90;;;;;;5072672;28;20709;-87
2023/12/06 05:46:52;;;;;;;7.95;7.13;;;6.10;99.90;;;;;;5073395;28;20208;-85
2023/12/06 05:49:38;;;;;;;7.95;7.15;;;6.10;99.90;;;;;;5082331;28;20258;-86
2023/12/06 05:52:23;;;;;;;8.55;7.65;;;6.00;99.90;;;;;;5082978;28;20203;-86
2023/12/06 05:55:09;;;;;;;9.02;8.13;;;6.10;99.90;;;;;;5074019;28;20275;-86
2023/12/06 05:57:55;;;;;;;10.50;9.25;;;6.10;99.90;;;;;;5087287;28;20200;-86
2023/12/06 06:00:41;;;;;;;10.60;8.63;;;6.10;99.90;;;;;;5074055;28;20207;-85
2023/12/06 06:03:28;;;;;;;10.98;8.95;;;6.10;99.90;;;;;;5087074;28;20289;-86
2023/12/06 06:06:14;;;;;;;10.50;9.20;;;6.10;99.90;;;;;;5086744;28;20360;-86
2023/12/06 06:08:59;;;;;;;13.15;11.20;;;6.10;99.90;;;;;;5087120;28;20948;-86
2023/12/06 06:11:45;;;;;;;12.73;11.43;;;6.10;99.90;;;;;;5070967;28;20204;-86
2023/12/06 06:14:30;;;;;;;12.75;11.27;;;6.10;99.90;;;;;;5076013;28;20758;-86
2023/12/06 06:17:16;;;;;;;14.18;12.65;;;6.00;99.90;;;;;;5076517;28;20291;-85
2023/12/06 06:20:05;;;;;;;13.77;12.20;;;6.00;99.90;;;;;;5084025;28;20206;-86
2023/12/06 06:22:51;;;;;;;15.32;11.93;;;6.00;99.90;;;;;;5071540;28;20785;-86
2023/12/06 06:25:36;;;;;;;13.10;11.70;;;6.00;99.90;;;;;;5076358;28;20228;-86
2023/12/06 06:28:22;;;;;;;14.40;11.80;;;6.00;99.90;;;;;;5080377;28;20271;-86
2023/12/06 06:31:09;;;;;;;13.35;11.45;;;6.00;99.90;;;;;;5078660;28;20516;-85
2023/12/06 06:33:56;;;;;;;12.35;10.73;;;6.00;99.90;;;;;;5083023;28;20227;-86
2023/12/06 06:36:43;;;;;;;12.15;10.68;;;6.00;99.90;;;;;;5075526;28;20222;-86
2023/12/06 06:39:29;;;;;;;12.10;10.10;;;5.90;99.90;;;;;;5083505;28;20689;-85
2023/12/06 06:42:15;;;;;;;12.95;10.60;;;5.80;99.90;;;;;;5076474;28;20286;-85
2023/12/06 06:45:02;;;;;;;11.27;9.47;;;5.80;99.90;;;;;;5076155;28;20266;-85
2023/12/06 06:47:47;;;;;;;9.70;7.18;;;5.80;99.90;;;;;;5081198;28;20949;-86
2023/12/06 06:50:33;;;;;;;7.15;5.65;;;5.80;99.90;;;;;;5072543;28;20199;-85
2023/12/06 06:53:20;;;;;;;7.93;6.47;;;5.80;99.90;;;;;;5081872;28;20244;-85
2023/12/06 06:56:06;;;;;;;6.90;5.55;;;5.70;99.90;;;;;;5076808;28;20214;-85
2023/12/06 06:58:52;;;;;;;5.75;4.95;;;5.70;99.90;;;;;;5082678;28;20243;-85
2023/12/06 07:01:37;;;;;;;6.00;5.00;;;5.60;99.90;;;;;;5064364;28;20622;-85
2023/12/06 07:04:23;;;;;;;8.95;5.07;;;5.60;99.90;;;;;;5076855;28;20610;-85
2023/12/06 07:07:09;;;;;;;6.85;6.00;;;5.60;99.90;;;;;;5083894;28;20575;-85
2023/12/06 07:09:56;;;;;;;9.52;7.68;;;5.40;99.90;;;;;;5075990;28;20334;-84
2023/12/06 07:12:41;;;;;;;9.65;7.30;;;5.40;99.90;;;;;;5065918;28;20208;-85
2023/12/06 07:15:27;;;;;;;9.95;8.00;;;5.40;99.90;;;;;;5076357;28;20308;-85
2023/12/06 07:18:13;;;;;;;15.45;9.00;;;5.30;99.90;;;;;;5076817;28;20721;-85
2023/12/06 07:20:59;;;;;;;10.93;8.50;;;5.30;99.90;;;;;;5075677;28;20200;-85
2023/12/06 07:23:45;;;;;;;11.90;8.77;;;5.20;99.90;;;;;;5071034;28;20239;-85
2023/12/06 07:26:32;;;;;;;10.20;8.45;;;5.20;99.90;;;;;;5075492;28;20275;-85
2023/12/06 07:29:18;;;;;;;13.35;10.43;;;5.10;99.90;;;;;;5084148;28;20713;-86
2023/12/06 07:32:03;;;;;;;15.75;13.30;;;5.10;99.90;;;;;;5076622;28;20220;-84
2023/12/06 07:34:49;;;;;;;17.50;12.80;;;5.10;99.90;;;;;;5080824;28;20239;-85
2023/12/06 07:37:35;;;;;;;17.70;13.75;;;5.10;99.90;;;;;;5090863;28;20192;-86
2023/12/06 07:40:20;;;;;;;17.43;13.77;;;5.20;99.90;;;;;;5076946;28;20206;-84
2023/12/06 07:43:07;;;;;;;17.13;13.45;;;5.10;99.90;;;;;;5076816;28;20485;-84
2023/12/06 07:45:53;;;;;;;17.75;14.23;;;5.00;99.90;;;;;;5077791;28;20273;-85
2023/12/06 07:48:39;;;;;;;15.65;13.50;;;5.00;99.90;;;;;;5074247;28;20197;-86
2023/12/06 07:51:25;;;;;;;16.85;13.88;;;5.00;99.90;;;;;;5074146;28;20601;-85
2023/12/06 07:54:10;;;;;;;16.13;14.25;;;5.00;99.90;;;;;;5078992;28;20604;-85
2023/12/06 07:56:56;;;;;;;16.73;13.10;;;4.90;99.90;;;;;;5078883;28;20197;-85
2023/12/06 07:59:47;;;;;;;17.20;12.88;;;4.80;99.90;;;;;;5075811;28;20251;-85
2023/12/06 08:02:33;;;;;;;16.58;12.57;;;4.80;99.90;;;;;;5070655;28;20205;-85
2023/12/06 08:05:19;;;;;;;17.80;14.00;;;4.80;99.90;;;;;;5090690;28;20332;-85
2023/12/06 08:08:05;;;;;;;16.48;13.75;;;4.70;99.90;;;;;;5074381;28;20197;-86
2023/12/06 08:10:52;;;;;;;17.38;14.05;;;4.70;99.90;;;;;;5074818;28;20199;-85
2023/12/06 08:13:38;;;;;;;17.15;13.05;;;4.70;99.90;;;;;;5076199;28;20228;-86
2023/12/06 08:16:25;;;;;;;14.10;12.60;;;4.70;99.90;;;;;;5076132;28;20318;-85
2023/12/06 08:19:10;;;;;;;16.40;12.75;;;4.80;99.90;;;;;;5083806;28;20209;-85
2023/12/06 08:21:56;;;;;;;15.07;11.98;;;4.70;99.90;;;;;;5078360;28;20215;-85
2023/12/06 08:24:42;;;;;;;14.20;11.77;;;4.70;99.90;;;;;;5080322;28;20219;-85
2023/12/06 08:27:29;;;;;;;13.52;11.73;;;4.70;99.90;;;;;;5074397;28;20228;-85
2023/12/06 08:30:15;;;;;;;14.00;11.90;;;4.70;99.90;;;;;;5078033;28;20676;-85
2023/12/06 08:33:02;;;;;;;14.50;12.15;;;4.60;99.90;;;;;;5076068;28;20303;-84
2023/12/06 08:35:48;;;;;;;15.43;12.13;;;4.60;99.90;;;;;;5070919;28;20701;-86
2023/12/06 08:38:33;;;;;;;15.25;11.82;;;4.60;99.90;;;;;;5088757;28;20781;-85
2023/12/06 08:41:19;;;;;;;13.10;11.20;;;4.60;99.90;;;;;;5077673;28;20824;-85
2023/12/06 08:44:07;;;;;;;14.48;12.05;;;4.60;99.90;;;;;;5076742;28;20225;-85
2023/12/06 08:46:52;;;;;;;12.18;10.80;;;4.60;99.90;;;;;;5071232;28;20286;-84
2023/12/06 08:49:40;;;;;;;14.88;12.02;;;4.60;99.90;;;;;;5070961;28;20220;-85
2023/12/06 08:52:26;;;;;;;13.68;10.82;;;4.60;99.90;;;;;;5083608;28;20195;-86
2023/12/06 08:55:12;;;;;;;13.10;11.32;;;4.60;99.90;;;;;;5090128;28;20245;-84
2023/12/06 08:57:57;;;;;;;13.55;10.80;;;4.60;99.90;;;;;;5079383;28;20212;-85
2023/12/06 09:00:43;;;;;;;14.10;11.55;;;4.50;99.90;;;;;;5072519;28;20846;-84
2023/12/06 09:03:28;;;;;;;14.27;11.05;;;4.60;99.90;;;;;;5074321;28;20732;-85
2023/12/06 09:06:16;;;;;;;14.25;12.20;;;4.60;99.90;;;;;;5077792;28;20262;-85
2023/12/06 09:09:02;;;;;;;14.18;12.00;;;4.60;99.90;;;;;;5073979;28;20228;-84
2023/12/06 09:11:48;;;;;;;13.43;10.95;;;4.60;99.90;;;;;;5070730;28;20274;-85
2023/12/06 09:14:34;;;;;;;16.50;11.23;;;4.60;99.90;;;;;;5082139;28;20277;-85
2023/12/06 09:17:19;;;;;;;12.40;11.05;;;4.60;99.90;;;;;;5077745;28;20684;-85
2023/12/06 09:20:06;;;;;;;12.35;10.63;;;4.70;99.90;;;;;;5082309;28;20201;-86
2023/12/06 09:22:53;;;;;;;14.32;11.15;;;4.70;99.90;;;;;;5070724;28;20204;-85
2023/12/06 09:25:39;;;;;;;13.73;11.68;;;4.70;99.90;;;;;;5079061;28;20222;-86
2023/12/06 09:28:24;;;;;;;13.50;11.20;;;4.60;99.90;;;;;;5080822;28;20195;-86
2023/12/06 09:31:10;;;;;;;14.02;11.52;;;4.60;99.90;;;;;;5085171;28;20325;-85
2023/12/06 09:33:56;;;;;;;12.80;10.75;;;4.60;99.90;;;;;;5078063;28;20231;-85
2023/12/06 09:36:42;;;;;;;12.48;10.65;;;4.60;99.90;;;;;;5069938;28;20196;-85
2023/12/06 09:39:29;;;;;;;14.77;11.07;;;4.60;99.90;;;;;;5083531;28;20783;-85
2023/12/06 09:42:14;;;;;;;11.85;10.63;;;4.60;99.90;;;;;;5083699;28;20686;-85
2023/12/06 09:45:01;;;;;;;14.90;11.70;;;4.60;99.90;;;;;;5072352;28;20296;-85
2023/12/06 09:47:48;;;;;;;13.00;10.70;;;4.60;99.90;;;;;;5075077;28;20707;-85
2023/12/06 09:50:33;;;;;;;13.48;10.38;;;4.70;99.90;;;;;;5076479;28;20257;-85
2023/12/06 09:53:22;;;;;;;13.85;11.35;;;4.70;99.90;;;;;;5078321;28;20235;-85
2023/12/06 09:56:10;;;;;;;12.25;10.63;;;4.70;99.90;;;;;;5086702;28;20199;-86
2023/12/06 09:58:56;;;;;;;13.05;10.85;;;4.70;99.90;;;;;;5072259;28;20723;-85
2023/12/06 10:01:41;;;;;;;14.35;11.20;;;4.80;99.90;;;;;;5076428;28;20193;-86
2023/12/06 10:04:27;;;;;;;15.93;12.65;;;4.90;99.90;;;;;;5077860;28;20231;-86
2023/12/06 10:07:13;;;;;;;13.38;11.10;;;4.80;99.90;;;;;;5075197;28;20225;-85
2023/12/06 10:10:00;;;;;;;12.25;10.85;;;4.80;99.90;;;;;;5078463;28;20194;-84
2023/12/06 10:12:48;;;;;;;15.93;11.77;;;4.90;99.90;;;;;;5076056;28;20274;-85
2023/12/06 10:15:38;;;;;;;13.02;10.65;;;4.90;99.90;;;;;;5077361;28;20207;-85
2023/12/06 10:18:24;;;;;;;13.30;11.43;;;4.90;99.90;;;;;;5078531;28;20196;-85
2023/12/06 10:21:10;;;;;;;12.65;10.65;;;4.90;99.90;;;;;;5078264;28;20240;-85
2023/12/06 10:23:58;;;;;;;12.32;11.02;;;4.90;99.90;;;;;;5078339;28;20293;-85
2023/12/06 10:26:44;;;;;;;14.02;10.80;;;5.00;99.90;;;;;;5084360;28;20224;-86
2023/12/06 10:29:32;;;;;;;12.63;10.20;;;5.00;99.90;;;;;;5077659;28;20261;-85
2023/12/06 10:32:18;;;;;;;12.43;10.60;;;5.00;99.90;;;;;;5084595;28;20204;-85
2023/12/06 10:35:05;;;;;;;13.25;9.52;;;5.00;99.90;;;;;;5088771;28;20235;-85
2023/12/06 10:37:51;;;;;;;12.73;10.02;;;5.00;99.90;;;;;;5080066;28;20234;-85
2023/12/06 10:40:37;;;;;;;12.75;10.48;;;5.00;99.90;;;;;;5083608;28;20206;-85
2023/12/06 10:43:25;;;;;;;11.43;9.40;;;5.00;99.90;;;;;;5082124;28;20590;-85
2023/12/06 10:46:13;;;;;;;14.45;10.73;;;5.10;99.90;;;;;;5081756;28;20233;-86
2023/12/06 10:49:01;;;;;;;12.07;10.32;;;5.10;99.90;;;;;;5082858;28;20201;-85
2023/12/06 10:51:48;;;;;;;12.32;10.93;;;5.20;99.90;;;;;;5080310;28;20201;-85
2023/12/06 10:54:34;;;;;;;12.20;10.60;;;5.20;99.90;;;;;;5085857;28;20310;-85
2023/12/06 10:57:20;;;;;;;13.10;11.13;;;5.10;99.90;;;;;;5082954;28;20233;-85
2023/12/06 11:00:08;;;;;;;13.65;11.23;;;5.10;99.90;;;;;;5083452;28;20968;-86
2023/12/06 11:02:55;;;;;;;14.35;11.05;;;5.10;99.90;;;;;;5073855;28;20212;-85
2023/12/06 11:05:45;;;;;;;15.25;12.05;;;5.20;99.90;;;;;;5079196;28;20224;-85
2023/12/06 11:08:48;;;;;;;12.93;10.65;;;5.20;99.90;;;;;;5077827;28;20342;-85
2023/12/06 11:11:45;;;;;;;12.95;10.70;;;5.10;99.90;;;;;;5081873;28;20336;-85
2023/12/06 11:14:56;;;;;;;19.05;11.65;;;5.10;99.90;;;;;;5082121;28;20226;-85
2023/12/06 11:17:47;;;;;;;13.52;10.70;;;5.10;99.90;;;;;;5090679;28;20341;-85
2023/12/06 11:20:35;;;;;;;13.15;11.05;;;5.10;99.90;;;;;;5079566;28;20228;-85
2023/12/06 11:23:22;;;;;;;14.63;11.75;;;5.10;99.90;;;;;;5083391;28;20270;-85
2023/12/06 11:26:08;;;;;;;14.07;12.00;;;5.10;99.90;;;;;;5083770;28;20258;-85
2023/12/06 11:28:55;;;;;;;13.35;11.95;;;5.10;99.90;;;;;;5088808;28;20607;-85
2023/12/06 11:31:41;;;;;;;15.90;12.10;;;5.20;99.90;;;;;;5086088;28;20208;-85
2023/12/06 11:34:37;;;;;;;15.00;12.73;;;5.20;99.90;;;;;;5084883;28;20223;-85
2023/12/06 11:37:24;;;;;;;16.15;12.25;;;5.20;99.90;;;;;;5087527;28;20330;-85
2023/12/06 11:40:18;;;;;;;13.35;11.50;;;5.20;99.90;;;;;;5079386;28;20212;-85
2023/12/06 11:43:03;;;;;;;13.95;11.32;;;5.20;99.90;;;;;;5082796;28;20195;-85
2023/12/06 11:45:49;;;;;;;15.10;12.95;;;5.20;99.90;;;;;;5081996;28;20199;-85
2023/12/06 11:48:38;;;;;;;13.45;11.23;;;5.20;99.90;;;;;;5086796;28;20213;-86
2023/12/06 11:51:25;;;;;;;16.75;12.73;;;5.30;99.90;;;;;;5083399;28;20688;-85
2023/12/06 11:54:14;;;;;;;15.52;12.88;;;5.30;99.90;;;;;;5078777;28;20227;-85
2023/12/06 11:57:06;;;;;;;14.13;11.80;;;5.40;99.90;;;;;;5083770;28;20200;-86
2023/12/06 11:59:53;;;;;;;14.60;12.43;;;5.40;99.90;;;;;;5075722;28;20299;-86
2023/12/06 12:02:39;;;;;;;14.52;12.45;;;5.30;99.90;;;;;;5079149;28;20208;-86
2023/12/06 12:05:25;;;;;;;16.65;12.82;;;5.40;99.90;;;;;;5080581;28;20694;-85
2023/12/06 12:08:12;;;;;;;16.05;13.38;;;5.40;99.90;;;;;;5083681;28;20270;-85
2023/12/06 12:10:59;;;;;;;14.13;12.13;;;5.40;99.90;;;;;;5080107;28;20200;-86
2023/12/06 12:13:44;;;;;;;16.45;13.30;;;5.40;99.90;;;;;;5080694;28;20244;-84
2023/12/06 12:16:30;;;;;;;12.63;10.88;;;5.40;99.90;;;;;;5080222;28;20257;-85
2023/12/06 12:19:16;;;;;;;19.63;12.77;;;5.40;99.90;;;;;;5083078;28;20578;-85
2023/12/06 12:22:03;;;;;;;15.13;13.20;;;5.40;99.90;;;;;;5077416;28;20255;-85
2023/12/06 12:24:48;;;;;;;13.90;11.85;;;5.40;99.90;;;;;;5087724;28;20223;-85
2023/12/06 12:27:35;;;;;;;18.35;13.13;;;5.50;99.90;;;;;;5090133;28;20215;-85
2023/12/06 12:30:21;;;;;;;15.18;12.75;;;5.60;99.90;;;;;;5091811;28;20209;-85
2023/12/06 12:33:07;;;;;;;18.73;13.43;;;5.60;99.90;;;;;;5078696;28;20244;-86
2023/12/06 12:35:53;;;;;;;15.27;12.25;;;5.60;99.90;;;;;;5075893;28;20682;-86
2023/12/06 12:38:39;;;;;;;18.25;13.65;;;5.60;99.90;;;;;;5081372;28;20204;-85
2023/12/06 12:41:26;;;;;;;20.85;13.25;;;5.50;99.90;;;;;;5080720;28;20775;-85
2023/12/06 12:44:13;;;;;;;18.27;12.85;;;5.50;99.90;;;;;;5082738;28;20219;-85
2023/12/06 12:46:59;;;;;;;15.80;12.77;;;5.40;99.90;;;;;;5076296;28;20298;-85
2023/12/06 12:49:48;;;;;;;16.83;12.95;;;5.50;99.90;;;;;;5079508;28;20207;-85
2023/12/06 12:52:35;;;;;;;19.15;12.45;;;5.50;99.90;;;;;;5079548;28;20208;-86
2023/12/06 12:55:22;;;;;;;17.67;13.43;;;5.50;99.90;;;;;;5082242;28;20207;-85
2023/12/06 12:58:08;;;;;;;18.77;13.80;;;5.50;99.90;;;;;;5078396;28;20729;-85
2023/12/06 13:00:55;;;;;;;15.38;13.10;;;5.50;99.90;;;;;;5077488;28;20340;-85
2023/12/06 13:03:40;;;;;;;21.85;14.60;;;5.40;99.90;;;;;;5077224;28;20303;-85
2023/12/06 13:06:26;;;;;;;19.85;13.60;;;5.50;99.90;;;;;;5079309;28;20203;-84
2023/12/06 13:09:13;;;;;;;19.23;14.43;;;5.50;99.90;;;;;;5079346;28;20207;-85
2023/12/06 13:11:59;;;;;;;16.02;13.50;;;5.60;99.90;;;;;;5080671;28;20735;-85
2023/12/06 13:14:44;;;;;;;18.58;13.55;;;5.60;99.90;;;;;;5080577;28;20223;-85
2023/12/06 13:17:32;;;;;;;17.03;13.97;;;5.50;99.90;;;;;;5077745;28;20720;-85
2023/12/06 13:20:17;;;;;;;16.73;13.90;;;5.60;99.90;;;;;;5090402;28;20438;-84
2023/12/06 13:23:03;;;;;;;17.38;13.80;;;5.50;99.90;;;;;;5084048;28;20243;-87
2023/12/06 13:25:48;;;;;;;16.13;13.35;;;5.40;99.90;;;;;;5080409;28;20326;-85
2023/12/06 13:28:34;;;;;;;19.60;12.45;;;5.30;99.90;;;;;;5083891;28;20230;-86
2023/12/06 13:31:19;;;;;;;14.63;11.45;;;5.20;99.90;;;;;;5082501;28;20681;-85
2023/12/06 13:34:07;;;;;;;17.45;12.18;;;5.20;99.90;;;;;;5081787;28;20304;-85
2023/12/06 13:36:52;;;;;;;13.15;10.88;;;5.20;99.90;;;;;;5086355;28;20761;-86
2023/12/06 13:39:39;;;;;;;12.23;10.45;;;5.20;99.90;;;;;;5077600;28;20204;-86
2023/12/06 13:42:24;;;;;;;15.43;11.70;;;5.10;99.90;;;;;;5077960;28;20689;-84
2023/12/06 13:45:10;;;;;;;13.50;10.70;;;5.10;99.90;;;;;;5082327;28;20809;-85
2023/12/06 13:47:56;;;;;;;13.75;10.18;;;5.10;99.90;;;;;;5079962;28;20219;-87
2023/12/06 13:50:43;;;;;;;13.35;10.57;;;5.20;99.90;;;;;;5081679;28;20203;-86
2023/12/06 13:53:29;;;;;;;13.15;10.13;;;5.20;99.90;;;;;;5079634;28;20232;-86
2023/12/06 13:56:14;;;;;;;13.73;10.48;;;5.20;99.90;;;;;;5087225;28;20318;-86
2023/12/06 13:59:00;;;;;;;14.90;10.85;;;5.20;99.90;;;;;;5082389;28;20563;-86
2023/12/06 14:01:46;;;;;;;12.30;10.10;;;5.30;99.90;;;;;;5081269;28;20584;-86
2023/12/06 14:04:32;;;;;;;15.90;10.55;;;5.40;99.90;;;;;;5079754;28;20309;-86
2023/12/06 14:07:19;;;;;;;14.77;10.87;;;5.40;99.90;;;;;;5082632;28;20224;-87
2023/12/06 14:10:06;;;;;;;12.77;10.60;;;5.40;99.90;;;;;;5085036;28;20781;-86
2023/12/06 14:12:52;;;;;;;13.20;10.75;;;5.30;99.90;;;;;;5088619;28;20262;-86
2023/12/06 14:15:38;;;;;;;14.48;10.57;;;5.30;99.90;;;;;;5086704;28;20580;-86
2023/12/06 14:18:24;;;;;;;13.75;11.55;;;5.20;99.90;;;;;;5087254;28;20267;-86
2023/12/06 14:21:10;;;;;;;14.18;11.10;;;5.20;99.90;;;;;;5084482;28;20206;-86
2023/12/06 14:23:57;;;;;;;13.00;10.60;;;5.20;99.90;;;;;;5084486;28;20224;-86